Castres-Mazamet Airport

LFCK · Tarn, Occitanie, 法国

使用的METAR站距离机场38 km。
罗盘
风向 的 Castres-Mazamet Airport 14/32
风: 2 kt, 1 beaufort

2 kt

1 kt
改变
0 ft 1.000 2.000 3.000 4.000 5.000
VV 0
METAR LFMK 260500Z AUTO VRB02KT 3500 BR VV/// 04/04 Q0999 TEMPO 0800 FG BECMG FEW044 BKN050 OVC110

METAR Castres-Mazamet Airport - LFCK/DCM

Castres-Mazamet Airport是,法国中的中型机场。 该机场位于纬度43,55630和经度2,28918。 该机场有一条跑道: 14/32. 本场的ICAO机场代码为LFCK。 该机场的IATA代码为DCM。 机场在Bordeaux FIR中。

该航空气象观测是针对Carcassonne Airport在2024年2月26日 06:00, 当地时间进行的。

机场观察

可变方向的风很小或没有风。

可见度为3,5 km。

垂直能见度为0 ft 没有观察到天花板。

当前天气为薄雾。 温度为4 °C,阵风为2 °C。 露点为4 °C,相对湿度为100%。 海平面上的气压为999 hPa (QNH)。

发展趋势

  • 暂时的

    可变方向的风很小或没有。 可见性变为800 m。 重大天气:多雾路段。

  • 变得

    可变方向的风很小或没有。 几云在4.400 ft的高度, 碎云在5.000 ft的高度 和 乌云密布在11.000 ft的高度.

白天

今天,太阳从07:32升起,在18:34降落。 这适用于Castres-Mazamet Airport,世界夏令时可能有所不同。 当地时间与世界标准时间之间的时差为+1 小时。 当前,没有夏令时有效。

公司介绍

在这个机场,你可以找到飞行俱乐部。 本场上唯一已知的公司是Aéroclub de Castres Mazamet。

体会

到Vliegles.nl去找飞行课程,跳伞和其他飞行体验。 浏览页面,了解Castres-Mazamet Airport附近所有可用的活动。 你也可以使用搜索功能来寻找你所在地附近的特定飞行课程、跳伞或其他飞行体验。

警示语

垂直能见度为0 ft。

跑道

Id 标题 侧风 逆风 侧风 %
14/32 140°-320° 1 kt 2 kt 64 %

逆风成分最大的方向会被突出显示,并用于横风计算。 这并不一定意味着这个方向在使用。

乌云

0 ft VV 垂直能见度
4.400 ft FEW 变得 几云
5.000 ft BKN 变得 碎云
11.000 ft OVC 变得 乌云密布

温度 & 天气

天气 薄雾
温度 4 °C
露点 4 °C
相对湿度 100%
风寒 2 °C
Kp-index 2 (0-9)

白天

日出
07:32 (1:15)
中午
13:03
日落
18:35

小工具

你想在你的网站上有一个关于Castres-Mazamet Airport的当前航空天气(METAR)的小部件吗?

显示HTML代码
?>